Terminal Aerodrome Forecast
Issued by NWS

Home | Current Version | Previous Version | Text Only | Print | Product List | Glossary On
Versions: 1 2 3 4 5 6 7 8 9 10 11 12 13 14 15 16 17 18 19 20 21 22 23 24 25 26
000
FTUS45 KCYS 301130
TAFLAR
TAF
KLAR 301130Z 3012/3112 19010KT P6SM SCT250
     FM301700 23014G22KT P6SM SCT080 SCT250
     FM302100 22014G24KT P6SM VCTS SCT080CB BKN150
     FM310200 23012KT P6SM BKN200=

USA.gov is the U.S. government's official web portal to all federal, state and local government web resources and services.